Date,TemperatureHighF,TemperatureAvgF,TemperatureLowF,DewpointHighF,DewpointAvgF,DewpointLowF,HumidityHigh,HumidityAvg,HumidityLow,PressureMaxIn,PressureMinIn,WindSpeedMaxMPH,WindSpeedAvgMPH,GustSpeedMaxMPH,PrecipitationSumIn
2013-1-1,98.0,83.2,75.0,87.0,80.3,75.0,99,92,65,29.80,29.70,4,1,11,0.28
2013-1-2,98.0,85.6,77.0,87.0,81.7,77.0,99,89,63,29.76,29.65,4,1,15,0.01
2013-1-3,101.0,86.4,73.0,82.0,79.0,73.0,99,81,52,29.76,29.65,4,1,11,0.01
2013-1-4,96.0,84.3,76.0,86.0,81.4,76.0,99,92,69,29.75,29.67,3,1,13,0.21
2013-1-5,98.0,83.6,75.0,84.0,79.7,75.0,99,89,59,29.81,29.68,4,1,14,0.09
2013-1-6,98.0,83.6,76.0,83.0,79.1,76.0,99,88,55,29.80,29.72,6,1,14,0.11
2013-1-7,96.0,82.3,75.0,86.0,79.4,75.0,99,91,67,29.81,29.71,5,1,14,1.04
2013-1-8,96.0,83.2,74.0,85.0,79.4,74.0,99,89,66,29.78,29.64,3,1,13,0.19
2013-1-9,98.0,85.5,75.0,85.0,80.8,75.0,99,87,64,29.69,29.54,3,1,10,0.01
2013-1-10,100.0,85.9,74.0,86.0,80.6,74.0,99,86,62,29.68,29.54,4,1,10,0.00
2013-1-11,98.0,86.1,77.0,87.0,81.6,77.0,99,87,65,29.79,29.65,4,1,12,0.00
2013-1-12,100.0,86.6,78.0,89.0,83.2,78.0,99,90,65,29.80,29.72,3,1,13,0.11
2013-1-13,102.0,87.2,77.0,84.0,79.3,77.0,99,80,48,29.78,29.69,5,1,11,0.01
2013-1-14,98.0,83.9,72.0,83.0,76.7,72.0,99,82,52,29.76,29.66,4,1,9,0.00
2013-1-15,98.0,85.2,72.0,85.0,79.4,72.0,99,84,56,29.76,29.66,3,1,12,0.00
2013-1-16,96.0,83.9,76.0,86.0,79.7,76.0,99,88,60,29.78,29.68,3,0,8,0.08
2013-1-17,98.0,84.6,74.0,87.0,78.4,74.0,99,84,54,29.76,29.67,4,1,11,0.01
2013-1-18,96.0,83.3,73.0,87.0,79.7,73.0,99,89,65,29.76,29.63,2,0,8,0.11
2013-1-19,87.0,78.5,76.0,86.0,78.5,76.0,99,99,97,29.70,29.56,2,0,8,2.43
2013-1-20,98.0,83.4,76.0,88.0,80.8,76.0,99,92,67,29.68,29.54,3,0,8,0.17
2013-1-21,95.0,82.2,76.0,89.0,81.3,76.0,99,97,80,29.63,29.49,2,0,9,0.96
2013-1-22,88.0,78.7,76.0,88.0,78.7,76.0,99,99,99,29.52,29.38,2,0,9,1.78
2013-1-23,88.0,81.7,78.0,88.0,81.7,78.0,99,99,99,29.41,29.19,7,2,20,4.65
2013-1-24,89.0,81.1,77.0,88.0,80.9,77.0,99,99,90,29.46,29.19,10,2,29,1.31
2013-1-25,105.0,87.9,77.0,90.0,81.9,77.0,99,84,55,29.52,29.35,5,1,14,0.56
2013-1-26,105.0,88.9,81.0,90.0,82.7,77.0,96,83,59,29.54,29.38,4,1,13,0.01
2013-1-27,109.0,91.4,82.0,89.0,84.9,82.0,99,83,51,29.54,29.39,3,1,13,0.01
2013-1-28,98.0,82.6,78.0,86.0,81.5,78.0,99,96,69,29.62,29.47,1,0,12,0.07
2013-1-29,114.0,91.6,77.0,90.0,82.9,77.0,99,81,33,29.63,29.49,4,1,14,0.09
2013-1-30,106.0,90.7,79.0,90.0,83.8,77.0,99,82,40,29.73,29.58,4,1,14,0.00
2013-1-31,100.0,86.4,77.0,90.0,83.1,77.0,99,90,73,29.74,29.65,4,1,11,0.00